• Join FlightAware (Why Join?)
  • Login
  • US Flag 
12:33PM EDT


 

Airport Tracker/Info


-or-


 

Live Flight TrackerFlight Track Log ✈ N130LH ✈ 21-Jul-2013 ✈ KSLH - KETH

Flight Track Log - Related Links

Times and Time Zones

All times are in EDT time to prevent confusion due to time zone crossing. See the N130LH flight status page for this flight to view local times or setup timezone preferences in your user account.

Time Position Orientation Groundspeed Altitude Reporting Facility
EDT Latitude Longitude Course Direction KTS MPH feet Rate Location/Type
08:55AM 45.6797 -84.9378 275° West 172 198 4,000  Level Minneapolis Center
08:56AM 45.6839 -84.9961 276° West 163 188 4,000  Level Minneapolis Center
08:57AM 45.6590 -84.8432 275° West  Level FlightAware Approximate
08:57AM 45.6875 -85.0478 276° West 157 181 4,000  Level Minneapolis Center
08:58AM 45.6624 -84.8976 275° West  Level FlightAware Approximate
08:58AM 45.6917 -85.1308 274° West 153 176 4,000  Level Minneapolis Center
08:59AM 45.6657 -84.9519 275° West  Level FlightAware Approximate
08:59AM 45.6947 -85.1894 274° West 151 174 4,000  Level Minneapolis Center
09:00AM 45.6690 -85.0062 275° West  Level FlightAware Approximate
09:00AM 45.6983 -85.2500 275° West 151 174 4,000  Level Minneapolis Center
09:01AM 45.7014 -85.3092 274° West 151 174 4,000  Level Minneapolis Center
09:02AM 45.7047 -85.3703 274° West 152 175 4,000  Level Minneapolis Center
09:03AM 45.7078 -85.4311 274° West 153 176 4,000  Level Minneapolis Center
09:04AM 45.7114 -85.4906 275° West 153 176 4,000  Level Minneapolis Center
09:05AM 45.7144 -85.5508 274° West 152 175 4,000  Level Minneapolis Center
09:06AM 45.7178 -85.6100 275° West 151 174 4,000  Level Minneapolis Center
09:07AM 45.7208 -85.6703 274° West 152 175 4,000  Level Minneapolis Center
09:08AM 45.7242 -85.7308 275° West 152 175 4,000  Level Minneapolis Center
09:09AM 45.7286 -85.8022 275° West 152 175 4,000 -60 Level Minneapolis Center
09:10AM 45.7311 -85.8617 273° West 151 174 3,900  Descending Minneapolis Center
09:11AM 45.7342 -85.9200 274° West 150 173 4,000  Climbing Minneapolis Center
09:12AM 45.7356 -85.9783 272° West 149 171 4,000  Level Minneapolis Center
09:13AM 45.7397 -86.0361 276° West 148 170 4,000  Level Minneapolis Center
09:14AM 45.7425 -86.0936 274° West 147 169 4,000  Level Minneapolis Center
09:15AM 45.7444 -86.1500 273° West 145 167 4,000  Level Minneapolis Center
09:16AM 45.7481 -86.2072 275° West 145 167 4,000  Level Minneapolis Center
09:17AM 45.7503 -86.2642 273° West 144 166 4,000  Level Minneapolis Center
09:18AM 45.7533 -86.3222 274° West 145 167 4,000  Level Minneapolis Center
09:19AM 45.7558 -86.3908 273° West 145 167 4,000  Level Minneapolis Center
09:21AM 45.7518 -86.4662 266° West  Level FlightAware Approximate
09:21AM 45.7622 -86.5053 266° West 116 133 4,000  Level Minneapolis Center
09:22AM 45.7656 -86.5619 275° West 140 161 4,000  Level Minneapolis Center
09:23AM 45.7672 -86.6217 272° West 144 166 4,000  Level Minneapolis Center
09:24AM 45.7694 -86.6822 273° West 144 166 4,000  Level Minneapolis Center
09:25AM 45.7722 -86.7386 274° West 141 162 4,000  Level Minneapolis Center
09:26AM 45.7753 -86.7975 274° West 144 166 4,000  Level Minneapolis Center
09:27AM 45.7775 -86.8561 273° West 144 166 4,000  Level Minneapolis Center
09:28AM 45.7797 -86.9147 273° West 145 167 4,000  Level Minneapolis Center
09:29AM 45.7836 -86.9714 276° West 143 165 4,000  Level Minneapolis Center
09:30AM 45.7858 -87.0289 273° West 143 165 4,000  Level Minneapolis Center
09:31AM 45.7875 -87.0867 272° West 143 165 4,000  Level Minneapolis Center
09:32AM 45.7900 -87.1436 274° West 142 163 4,000  Level Minneapolis Center
09:33AM 45.7919 -87.2028 273° West 145 167 4,000  Level Minneapolis Center
09:34AM 45.7947 -87.2611 274° West 145 167 4,000  Level Minneapolis Center
09:35AM 45.7967 -87.3200 273° West 146 168 4,000  Level Minneapolis Center
09:36AM 45.7989 -87.3797 273° West 146 168 4,000  Level Minneapolis Center
09:37AM 45.8019 -87.4369 274° West 143 165 4,000  Level Minneapolis Center
09:38AM 45.8036 -87.4939 272° West 140 161 4,000  Level Minneapolis Center
09:40AM 45.8050 -87.5497 272° West 140 161 4,000  Level Minneapolis Center
09:41AM 45.8086 -87.6211 274° West 143 165 4,000  Level Minneapolis Center
09:42AM 45.8097 -87.6778 272° West 141 162 4,000  Level Minneapolis Center
09:43AM 45.8111 -87.7322 272° West 143 165 4,000  Level Minneapolis Center
09:44AM 45.8136 -87.7764 275° West 141 162 4,000  Level Minneapolis Center
09:45AM 45.8158 -87.8453 273° West 142 163 4,000  Level Minneapolis Center
09:46AM 45.8169 -87.9019 272° West 143 165 4,000  Level Minneapolis Center
09:47AM 45.8194 -87.9547 274° West 147 169 4,000  Level Minneapolis Center
09:48AM 45.8214 -88.0286 272° West 148 170 4,000 -60 Level Minneapolis Center
09:49AM 45.8228 -88.0864 272° West 145 167 3,900 -60 Descending Minneapolis Center
09:50AM 45.8256 -88.1464 274° West 147 169 3,900  Level Minneapolis Center
09:51AM 45.8281 -88.2069 273° West 147 169 4,000  Climbing Minneapolis Center
09:52AM 45.8289 -88.2647 271° West 146 168 4,000  Level Minneapolis Center
09:53AM 45.8311 -88.3231 273° West 146 168 4,000  Level Minneapolis Center
09:54AM 45.8331 -88.3811 273° West 146 168 4,000  Level Minneapolis Center
09:55AM 45.8344 -88.4389 272° West 146 168 4,000  Level Minneapolis Center
09:56AM 45.8350 -88.4969 271° West 145 167 4,000  Level Minneapolis Center
09:57AM 45.8369 -88.5556 273° West 146 168 4,000 -60 Level Minneapolis Center
09:58AM 45.8383 -88.6131 272° West 145 167 3,900  Descending Minneapolis Center
09:59AM 45.8397 -88.6708 272° West 145 167 4,000  Climbing Minneapolis Center
10:00AM 45.8419 -88.7275 273° West 144 166 4,000  Level Minneapolis Center
10:01AM 45.8439 -88.7847 273° West 144 166 4,000  Level Minneapolis Center
10:02AM 45.8450 -88.8531 271° West 143 165 4,000  Level Minneapolis Center
10:03AM 45.8467 -88.9106 272° West 143 165 4,000  Level Minneapolis Center
10:04AM 45.8475 -88.9689 271° West 145 167 4,000  Level Minneapolis Center
10:05AM 45.8494 -89.0283 273° West 147 169 4,000  Level Minneapolis Center
10:06AM 45.8506 -89.0861 272° West 146 168 4,000  Level Minneapolis Center
10:07AM 45.8522 -89.1442 272° West 146 168 4,000  Level Minneapolis Center
10:08AM 45.8533 -89.2019 272° West 145 167 4,000  Level Minneapolis Center
10:09AM 45.8547 -89.2608 272° West 146 168 4,000  Level Minneapolis Center
10:10AM 45.8556 -89.3192 271° West 146 168 4,000  Level Minneapolis Center
10:11AM 45.8567 -89.3772 272° West 146 168 4,000  Level Minneapolis Center
10:12AM 45.8583 -89.4344 272° West 144 166 4,000 -60 Level Minneapolis Center
10:13AM 45.8594 -89.4903 272° West 142 163 3,900 -60 Descending Minneapolis Center
10:14AM 45.8606 -89.5564 271° West 139 160 3,900  Level Minneapolis Center
10:15AM 45.8614 -89.6136 271° West 140 161 4,000  Climbing Minneapolis Center
10:16AM 45.8628 -89.6694 272° West 141 162 4,000  Level Minneapolis Center
10:18AM 45.8636 -89.7267 271° West 142 163 4,000  Level Minneapolis Center
10:19AM 45.8647 -89.7822 272° West 141 162 4,000  Level Minneapolis Center
10:20AM 45.8656 -89.8381 271° West 140 161 4,100  Climbing Minneapolis Center
10:21AM 45.8667 -89.8931 272° West 139 160 4,100  Level Minneapolis Center
10:22AM 45.8678 -89.9514 272° West 142 163 4,100 -60 Level Minneapolis Center
10:23AM 45.8683 -90.0075 271° West 142 163 4,000 -60 Descending Minneapolis Center
10:24AM 45.8683 -90.0533 270° West 142 163 4,000  Level Minneapolis Center
10:25AM 45.8700 -90.1336 272° West 143 165 4,100  Climbing Minneapolis Center
10:26AM 45.8714 -90.1925 272° West 145 167 4,100  Level Minneapolis Center
10:27AM 45.8717 -90.2497 270° West 145 167 4,100  Level Minneapolis Center
10:28AM 45.8719 -90.3083 270° West 146 168 4,100  Level Minneapolis Center
10:29AM 45.8728 -90.3675 271° West 147 169 4,100 -60 Level Minneapolis Center
10:30AM 45.8736 -90.4261 271° West 147 169 4,000 -60 Descending Minneapolis Center
10:31AM 45.8739 -90.4842 270° West 146 168 4,000 -60 Level Minneapolis Center
10:32AM 45.8756 -90.5436 272° West 148 170 3,900 -60 Descending Minneapolis Center
10:33AM 45.8764 -90.6147 271° West 148 170 3,900  Level Minneapolis Center
10:34AM 45.8767 -90.6747 270° West 149 171 3,900  Level Minneapolis Center
10:35AM 45.8778 -90.7361 272° West 151 174 3,900  Level Minneapolis Center
10:36AM 45.8778 -90.7969 270° West 152 175 3,900  Level Minneapolis Center
10:37AM 45.8783 -90.8578 271° West 153 176 3,900  Level Minneapolis Center
10:38AM 45.8789 -90.9133 271° West 153 176 3,900  Level Minneapolis Center
10:40AM 45.8785 -90.9999 270° West  Level FlightAware Approximate
10:47AM 45.8757 -91.4084 270° West  Level FlightAware Approximate
10:48AM 45.8752 -91.4668 269° West  Level FlightAware Approximate
10:49AM 45.8746 -91.5252 269° West  Level FlightAware Approximate
10:50AM 45.8741 -91.5835 269° West  Level FlightAware Approximate
10:51AM 45.8734 -91.6419 269° West  Level FlightAware Approximate
10:52AM 45.8728 -91.7002 269° West  Level FlightAware Approximate
10:53AM 45.8722 -91.7586 269° West  Level FlightAware Approximate
10:54AM 45.8714 -91.8169 269° West  Level FlightAware Approximate
10:55AM 45.8707 -91.8753 269° West  Level FlightAware Approximate
10:56AM 45.8700 -91.9336 269° West  Level FlightAware Approximate
10:57AM 45.8692 -91.9920 269° West  Level FlightAware Approximate
10:58AM 45.8684 -92.0503 269° West  Level FlightAware Approximate
10:59AM 45.8675 -92.1087 269° West  Level FlightAware Approximate
11:00AM 45.8667 -92.1673 270° West  Level FlightAware Approximate
11:01AM 45.8669 -92.2256 270° West  Level FlightAware Approximate
11:02AM 45.8672 -92.2840 270° West  Level FlightAware Approximate
11:03AM 45.8674 -92.3423 270° West  Level FlightAware Approximate
11:04AM 45.8675 -92.4007 270° West  Level FlightAware Approximate
11:04AM 45.8786 -92.4675 270° West 78 90 3,900  Level Minneapolis Center
11:05AM 45.8677 -92.4590 270° West  Level FlightAware Approximate
11:05AM 45.8778 -92.5439 269° West 153 176 3,900  Level Minneapolis Center
11:06AM 45.8678 -92.5174 270° West  Level FlightAware Approximate
11:06AM 45.8778 -92.6167 270° West 154 177 3,900  Level Minneapolis Center
11:07AM 45.8679 -92.5757 270° West  Level FlightAware Approximate
11:07AM 45.8769 -92.6775 269° West 153 176 4,000  Level Minneapolis Center
11:08AM 45.8679 -92.6341 270° West  Level FlightAware Approximate
11:08AM 45.8769 -92.7389 270° West 153 176 3,900  Level Minneapolis Center
11:09AM 45.8679 -92.6924 270° West  Level FlightAware Approximate
11:09AM 45.8764 -92.8011 269° West 154 177 3,900  Level Minneapolis Center
11:10AM 45.8767 -92.8608 270° West 153 176 4,000  Climbing Minneapolis Center
11:11AM 45.8781 -92.9600 271° West 196 226 3,900 -60 Descending Minneapolis Center
11:12AM 45.8747 -92.9947 262° West 152 175 3,900  Level Minneapolis Center
11:13AM 45.8747 -93.0586 270° West 153 176 3,900  Level Minneapolis Center
11:14AM 45.8736 -93.1186 268° West 152 175 3,900  Level Minneapolis Center
11:15AM 45.8733 -93.1797 270° West 154 177 4,000  Climbing Minneapolis Center
11:16AM 45.8725 -93.2511 269° West 152 175 3,900 -60 Descending Minneapolis Center
11:17AM 45.8714 -93.3136 269° West 153 176 3,900  Level Minneapolis Center
11:18AM 45.8697 -93.3761 268° West 156 180 4,000  Climbing Minneapolis Center
11:19AM 45.8692 -93.4392 269° West 158 182 3,900  Descending Minneapolis Center
11:21AM 45.8678 -93.4978 268° West 153 176 4,000  Climbing Minneapolis Center
11:22AM 45.8672 -93.5572 269° West 151 174 3,900  Descending Minneapolis Center
11:23AM 45.8664 -93.6278 269° West 149 171 4,000  Climbing Minneapolis Center
11:24AM 45.8664 -93.6867 270° West 149 171 3,900  Descending Minneapolis Center
11:25AM 45.8639 -93.7486 267° West 150 173 4,000  Climbing Minneapolis Center
11:26AM 45.8639 -93.8067 270° West 151 174 3,900 -60 Descending Minneapolis Center
11:27AM 45.8628 -93.8747 269° West 151 174 3,900  Level Minneapolis Center
11:28AM 45.8611 -93.9319 268° West 151 174 4,000  Climbing Minneapolis Center
11:30AM 45.8703 -94.0359 276° West  Level FlightAware Approximate
11:37AM 45.8981 -94.4455 276° West  Level FlightAware Approximate
11:38AM 45.9019 -94.5040 275° West  Level FlightAware Approximate
11:39AM 45.9057 -94.5626 275° West  Level FlightAware Approximate
11:40AM 45.9095 -94.6211 275° West  Level FlightAware Approximate
11:41AM 45.9133 -94.6797 275° West  Level FlightAware Approximate
11:42AM 45.9170 -94.7383 276° West  Level FlightAware Approximate
11:43AM 45.9212 -94.7968 276° West  Level FlightAware Approximate
11:44AM 45.9253 -94.8553 276° West  Level FlightAware Approximate
11:45AM 45.9294 -94.9139 276° West  Level FlightAware Approximate
11:46AM 45.9334 -94.9724 276° West  Level FlightAware Approximate
11:47AM 45.9374 -95.0310 276° West  Level FlightAware Approximate
11:48AM 45.9414 -95.0895 276° West  Level FlightAware Approximate
11:49AM 45.9454 -95.1481 276° West  Level FlightAware Approximate
11:50AM 45.9493 -95.2067 276° West  Level FlightAware Approximate
11:51AM 45.9435 -95.2646 259° West  Level FlightAware Approximate
11:52AM 45.9356 -95.3224 259° West  Level FlightAware Approximate
11:53AM 45.9277 -95.3801 259° West  Level FlightAware Approximate
11:54AM 45.9198 -95.4378 259° West  Level FlightAware Approximate
11:55AM 45.9118 -95.4955 259° West  Level FlightAware Approximate
11:56AM 45.9038 -95.5532 259° West  Level FlightAware Approximate
11:57AM 45.8958 -95.6108 259° West  Level FlightAware Approximate
11:58AM 45.8878 -95.6685 259° West  Level FlightAware Approximate
11:59AM 45.8797 -95.7261 259° West  Level FlightAware Approximate
11:59AM 45.8817 -95.8142 258° West 158 182 4,000  Level Minneapolis Center
12:00PM 45.8716 -95.7837 259° West  Level FlightAware Approximate
12:00PM 45.8733 -95.8703 258° West 152 175 4,000  Level Minneapolis Center
12:01PM 45.8635 -95.8413 259° West  Level FlightAware Approximate
12:01PM 45.8656 -95.9292 259° West 151 174 4,000  Level Minneapolis Center
12:02PM 45.8553 -95.8989 259° West  Level FlightAware Approximate
12:02PM 45.8575 -95.9869 259° West 150 173 4,000  Level Minneapolis Center
12:03PM 45.8471 -95.9565 258° West  Level FlightAware Approximate
12:03PM 45.8497 -96.0464 259° West 150 173 4,000  Level Minneapolis Center
12:04PM 45.8389 -96.0140 258° West  Level FlightAware Approximate
12:04PM 45.8400 -96.1211 259° West 151 174 4,000  Level Minneapolis Center
12:05PM 45.8306 -96.0715 258° West  Level FlightAware Approximate
12:05PM 45.8311 -96.1786 258° West 152 175 4,000  Level Minneapolis Center
12:06PM 45.8228 -96.2369 258° West 153 176 4,000  Level Minneapolis Center
12:07PM 45.8150 -96.2953 259° West 152 175 4,000  Level Minneapolis Center
12:08PM 45.8067 -96.3536 258° West 151 174 4,000  Level Minneapolis Center
12:10PM 45.7960 -96.4205 257° West  Level FlightAware Approximate
12:17PM 45.7667 -96.5333 234° Southwest  Level FlightAware Approximate